• Join FlightAware (Why Join?)
  • Login
  • US Flag 
03:22PM EDT


 

Airport Tracker/Info


-or-


 

Live Flight TrackerFlight Track Log ✈ SWA419 ✈ 02-May-2013 ✈ KBWI - KSAT

Flight Track Log - Related Links

Times and Time Zones

All times are in EDT time to prevent confusion due to time zone crossing. See the SWA419 flight status page for this flight to view local times or setup timezone preferences in your user account.

Time Position Orientation Groundspeed Altitude Reporting Facility
EDT Latitude Longitude Course Direction KTS MPH feet Rate Location/Type
02:19PM 39.1661 -76.7669 299° West 259 298 3,600  Level Washington Center
02:20PM 39.1881 -76.8583 287° West 284 327 7,300 3,840 Climbing Washington Center
02:21PM 39.2119 -76.9550 288° West 291 335 11,100 3,000 Climbing Washington Center
02:22PM 39.2167 -77.1000 272° West 359 413 13,500 2,460 Climbing Potomac TRACON
02:23PM 39.0571 -77.2649 211° Southwest  Level FlightAware Approximate
02:24PM 39.0831 -77.2683 224° Southwest 353 406 18,700  Level Washington Center
02:25PM 39.0006 -77.3597 221° Southwest 371 427 21,100 2,160 Climbing Washington Center
02:26PM 38.9711 -77.5086 256° West 386 444 23,000 1,860 Climbing Washington Center
02:27PM 38.9458 -77.6575 258° West 420 483 24,800 1,980 Climbing Washington Center
02:28PM 38.9178 -77.8275 258° West 437 503 27,000 1,860 Climbing Washington Center
02:29PM 38.8917 -77.9892 258° West 455 524 28,600 1,620 Climbing Washington Center
02:30PM 38.8656 -78.1458 258° West 455 524 30,300 1,980 Climbing Washington Center
02:31PM 38.8536 -78.3081 265° West 461 531 32,600 1,740 Climbing Washington Center
02:32PM 38.8497 -78.4678 268° West 461 531 33,900 660 Climbing Washington Center
02:33PM 38.8500 -78.6303 270° West 461 531 34,000  Climbing Washington Center
02:34PM 38.8439 -78.7900 267° West 461 531 34,000 120 Level Washington Center
02:35PM 38.8206 -78.9517 260° West 461 531 34,300 960 Climbing Washington Center
02:36PM 38.7953 -79.1050 258° West 461 531 35,900 1,560 Climbing Washington Center
02:37PM 38.7786 -79.2481 262° West 456 525 37,400 1,020 Climbing Washington Center
02:38PM 38.7506 -79.4142 258° West 450 518 38,000 240 Climbing Washington Center
02:39PM 38.7269 -79.5647 259° West 444 511 38,000  Level Washington Center
02:40PM 38.7031 -79.7153 259° West 444 511 38,000  Level Washington Center
02:41PM 38.6792 -79.8600 258° West 438 504 38,000  Level Washington Center
02:43PM 38.6361 -80.1006 257° West 423 487 38,000  Level Indianapolis Center
02:44PM 38.6117 -80.2461 258° West 419 482 38,000  Level Indianapolis Center
02:45PM 38.5897 -80.3825 258° West 412 474 38,000  Level Indianapolis Center
02:46PM 38.5644 -80.5367 258° West 420 483 38,000  Level Indianapolis Center
02:47PM 38.5397 -80.6828 258° West 421 484 38,000  Level Indianapolis Center
02:48PM 38.5092 -80.8300 255° West 427 491 38,000  Level Indianapolis Center
02:49PM 38.4389 -80.9903 241° Southwest 430 495 38,000  Level Indianapolis Center
02:50PM 38.3803 -81.1239 241° Southwest 429 494 38,000  Level Indianapolis Center
02:51PM 38.3231 -81.2569 241° Southwest 426 490 38,000  Level Indianapolis Center
02:52PM 38.2644 -81.3908 241° Southwest 427 491 38,000  Level Indianapolis Center
02:53PM 38.2061 -81.5231 241° Southwest 426 490 38,000  Level Indianapolis Center
02:54PM 38.1492 -81.6556 241° Southwest 426 490 38,000  Level Indianapolis Center
02:55PM 38.0897 -81.7869 240° Southwest 426 490 38,000  Level Indianapolis Center
02:56PM 38.0319 -81.9203 241° Southwest 429 494 38,000  Level Indianapolis Center
02:57PM 37.9614 -82.0786 241° Southwest 431 496 38,000  Level Indianapolis Center
02:58PM 37.9019 -82.2114 240° Southwest 432 497 38,000  Level Indianapolis Center
02:59PM 37.8436 -82.3447 241° Southwest 433 498 38,000  Level Indianapolis Center
03:00PM 37.7836 -82.4786 240° Southwest 437 503 38,000  Level Indianapolis Center
03:01PM 37.7239 -82.6108 240° Southwest 436 502 38,000  Level Indianapolis Center
03:02PM 37.6533 -82.7653 240° Southwest 436 502 38,000  Level Indianapolis Center
03:03PM 37.5925 -82.8994 240° Southwest 441 507 38,000  Level Indianapolis Center
03:04PM 37.5325 -83.0311 240° Southwest 435 501 38,000  Level Indianapolis Center
03:06PM 37.4717 -83.1644 240° Southwest 439 505 38,000  Level Indianapolis Center
03:07PM 37.4106 -83.2953 240° Southwest 436 502 38,000  Level Indianapolis Center
03:08PM 37.3403 -83.4483 240° Southwest 434 499 38,000  Level Indianapolis Center
03:09PM 37.2806 -83.5753 239° Southwest 425 489 38,000  Level Indianapolis Center
03:10PM 37.2214 -83.7039 240° Southwest 426 490 38,000  Level Indianapolis Center
03:11PM 37.1611 -83.8317 239° Southwest 427 491 38,000  Level Indianapolis Center
03:12PM 37.1006 -83.9592 239° Southwest 428 493 38,000  Level Indianapolis Center
03:13PM 37.0300 -84.1083 239° Southwest 426 490 38,000  Level Indianapolis Center
03:14PM 36.9706 -84.2372 240° Southwest 428 493 38,000  Level Indianapolis Center
03:15PM 36.9086 -84.3642 239° Southwest 428 493 38,000  Level Indianapolis Center
03:16PM 36.8483 -84.4928 240° Southwest 428 493 38,000  Level Indianapolis Center
03:17PM 36.7883 -84.6183 239° Southwest 427 491 38,000  Level Indianapolis Center
03:18PM 36.7147 -84.7703 239° Southwest 427 491 38,000  Level Indianapolis Center
03:19PM 36.6536 -84.8972 239° Southwest 430 495 38,000  Level Indianapolis Center
03:20PM 36.5925 -85.0214 239° Southwest 424 488 38,000  Level Indianapolis Center
03:21PM 36.5303 -85.1469 238° Southwest 427 491 38,000  Level Indianapolis Center
03:22PM 36.4689 -85.2728 239° Southwest 428 493 38,000  Level Indianapolis Center
03:23PM 36.3939 -85.4242 238° Southwest 428 493 38,000  Level Indianapolis Center
03:24PM 36.3331 -85.5497 239° Southwest 427 491 38,000  Level Indianapolis Center
03:24PM 36.3167 -85.5792 235° Southwest 433 498 38,000  Level Memphis Center
03:25PM 36.2567 -85.7036 239° Southwest 433 498 38,000  Level Memphis Center
03:26PM 36.1925 -85.8283 238° Southwest 433 498 38,000  Level Memphis Center
03:27PM 36.1322 -85.9497 238° Southwest 433 498 38,000  Level Memphis Center
03:28PM 36.0681 -86.0764 238° Southwest 428 493 38,000  Level Memphis Center
03:29PM 36.0075 -86.1978 238° Southwest 422 486 38,000  Level Memphis Center
03:30PM 35.9389 -86.3344 238° Southwest 427 491 38,000  Level Memphis Center
03:31PM 35.8742 -86.4581 237° Southwest 427 491 38,000  Level Memphis Center
03:32PM 35.8133 -86.5811 239° Southwest 427 491 38,000  Level Memphis Center
03:33PM 35.7483 -86.7069 238° Southwest 427 491 38,000  Level Memphis Center
03:34PM 35.6850 -86.8300 238° Southwest 427 491 38,000  Level Memphis Center
03:35PM 35.6239 -86.9525 238° Southwest 427 491 38,000  Level Memphis Center
03:36PM 35.5664 -87.0647 238° Southwest 427 491 38,000  Level Memphis Center
03:37PM 35.5031 -87.1894 238° Southwest 427 491 38,000  Level Memphis Center
03:38PM 35.4372 -87.3119 237° Southwest 427 491 38,000  Level Memphis Center
03:39PM 35.3775 -87.4311 238° Southwest 427 491 38,000  Level Memphis Center
03:40PM 35.3156 -87.5531 238° Southwest 427 491 38,000  Level Memphis Center
03:41PM 35.2517 -87.6744 237° Southwest 427 491 38,000  Level Memphis Center
03:42PM 35.1872 -87.7961 237° Southwest 427 491 38,000  Level Memphis Center
03:43PM 35.1208 -87.9175 236° Southwest 432 497 38,000  Level Memphis Center
03:44PM 35.0567 -88.0386 237° Southwest 427 491 38,000  Level Memphis Center
03:45PM 34.9900 -88.1594 236° Southwest 432 497 38,000  Level Memphis Center
03:46PM 34.9192 -88.3006 239° Southwest 447 514 38,000  Level Memphis Center
03:47PM 34.8525 -88.4236 237° Southwest 447 514 38,000  Level Memphis Center
03:48PM 34.7853 -88.5417 235° Southwest 435 501 38,000  Level Memphis Center
03:49PM 34.7203 -88.6642 237° Southwest 435 501 38,000  Level Memphis Center
03:50PM 34.6511 -88.7842 235° Southwest 435 501 38,000  Level Memphis Center
03:51PM 34.5858 -88.9067 237° Southwest 442 509 38,000  Level Memphis Center
03:52PM 34.5183 -89.0286 236° Southwest 447 514 38,000  Level Memphis Center
03:53PM 34.4506 -89.1533 237° Southwest 442 509 38,000  Level Memphis Center
03:54PM 34.3892 -89.2647 236° Southwest 447 514 38,000  Level Memphis Center
03:55PM 34.3211 -89.3889 236° Southwest 447 514 38,000  Level Memphis Center
03:56PM 34.2533 -89.5103 236° Southwest 442 509 38,000  Level Memphis Center
03:57PM 34.1853 -89.6339 236° Southwest 449 517 38,000  Level Memphis Center
03:58PM 34.1150 -89.7575 236° Southwest 444 511 38,000  Level Memphis Center
03:59PM 34.0425 -89.8933 237° Southwest 444 511 38,000  Level Memphis Center
04:00PM 33.9739 -90.0139 236° Southwest 443 510 38,000  Level Memphis Center
04:01PM 33.9075 -90.1344 236° Southwest 443 510 38,000  Level Memphis Center
04:02PM 33.8386 -90.2522 235° Southwest 443 510 38,000  Level Memphis Center
04:03PM 33.7825 -90.3647 239° Southwest 443 510 38,000  Level Memphis Center
04:04PM 33.7136 -90.4822 235° Southwest 443 510 38,000  Level Memphis Center
04:05PM 33.6381 -90.6167 236° Southwest 443 510 38,000  Level Memphis Center
04:06PM 33.5689 -90.7361 235° Southwest 443 510 38,000  Level Memphis Center
04:07PM 33.4997 -90.8556 235° Southwest 443 510 38,000  Level Memphis Center
04:08PM 33.4325 -90.9719 235° Southwest 443 510 38,000  Level Memphis Center
04:09PM 33.3608 -91.0933 235° Southwest 448 516 38,000 660 Level Memphis Center
04:11PM 33.2458 -91.2939 236° Southwest 432 497 39,800 720 Climbing Fort Worth Center
04:12PM 33.1808 -91.4197 238° Southwest 437 503 40,000 60 Climbing Fort Worth Center
04:13PM 33.1089 -91.5314 232° Southwest 437 503 40,000  Level Fort Worth Center
04:14PM 33.0392 -91.6475 234° Southwest 442 509 40,000  Level Fort Worth Center
04:15PM 32.9717 -91.7656 236° Southwest 442 509 40,000  Level Fort Worth Center
04:16PM 32.9056 -91.8739 234° Southwest 442 509 40,000  Level Fort Worth Center
04:17PM 32.8394 -91.9892 236° Southwest 442 509 40,000  Level Fort Worth Center
04:18PM 32.7714 -92.1044 235° Southwest 442 509 40,000  Level Fort Worth Center
04:19PM 32.7011 -92.2219 235° Southwest 442 509 40,000  Level Fort Worth Center
04:20PM 32.6231 -92.3522 235° Southwest 449 517 40,000  Level Fort Worth Center
04:21PM 32.5683 -92.4467 236° Southwest 449 517 40,000  Level Fort Worth Center
04:22PM 32.4958 -92.5639 234° Southwest 429 494 40,000  Level Fort Worth Center
04:23PM 32.4269 -92.6758 234° Southwest 424 488 40,000  Level Fort Worth Center
04:24PM 32.3506 -92.8075 236° Southwest 432 497 40,000  Level Fort Worth Center
04:25PM 32.2875 -92.9139 235° Southwest 437 503 40,000  Level Fort Worth Center
04:26PM 32.2206 -93.0278 235° Southwest 442 509 40,000  Level Fort Worth Center
04:27PM 32.1511 -93.1367 233° Southwest 437 503 40,000  Level Fort Worth Center
04:28PM 32.0819 -93.2503 234° Southwest 437 503 40,000  Level Fort Worth Center
04:29PM 32.0125 -93.3636 234° Southwest 437 503 40,000  Level Fort Worth Center
04:30PM 31.9453 -93.4767 235° Southwest 437 503 40,000  Level Fort Worth Center
04:31PM 31.8736 -93.5900 233° Southwest 437 503 40,000  Level Fort Worth Center
04:32PM 31.8036 -93.6978 233° Southwest 437 503 40,000  Level Fort Worth Center
04:33PM 31.7381 -93.8081 235° Southwest 431 496 40,000  Level Fort Worth Center
04:35PM 31.6294 -93.9764 233° Southwest 417 480 40,000  Level Houston Center
04:36PM 31.5628 -94.0842 234° Southwest 410 472 40,000  Level Houston Center
04:37PM 31.4942 -94.1911 233° Southwest 409 471 40,000  Level Houston Center
04:38PM 31.4133 -94.3206 234° Southwest 409 471 40,000  Level Houston Center
04:39PM 31.3458 -94.4275 234° Southwest 408 470 40,000  Level Houston Center
04:41PM 31.2252 -94.5999 233° Southwest  Level FlightAware Approximate
04:44PM 30.9586 -94.9375 223° Southwest 412 474 40,000  Level Houston Center
04:46PM 30.8249 -95.0615 219° Southwest  Level FlightAware Approximate
04:46PM 30.7894 -95.1178 222° Southwest 410 472 40,000  Level Houston Center
04:47PM 30.6883 -95.2258 223° Southwest 413 475 40,000  Level Houston Center
04:48PM 30.6545 -95.2464 223° Southwest  Level FlightAware Approximate
04:48PM 30.6033 -95.3158 222° Southwest 412 474 40,000  Level Houston Center
04:49PM 30.5706 -95.3360 223° Southwest  Level FlightAware Approximate
04:49PM 30.5200 -95.4056 223° Southwest 409 471 40,000  Level Houston Center
04:50PM 30.4400 -95.4892 222° Southwest 412 474 40,000  Level Houston Center
04:51PM 30.3556 -95.5811 223° Southwest 417 480 40,000  Level Houston Center
04:52PM 30.2531 -95.6872 222° Southwest 415 478 40,000  Level Houston Center
04:53PM 30.3208 -95.5959 221° Southwest  Level FlightAware Approximate
04:53PM 30.1689 -95.7772 223° Southwest 415 478 40,000  Level Houston Center
04:54PM 30.2365 -95.6847 222° Southwest  Level FlightAware Approximate
04:54PM 30.0836 -95.8650 222° Southwest 414 476 40,000  Level Houston Center
04:55PM 30.0000 -95.9522 222° Southwest 410 472 40,000  Level Houston Center
04:56PM 29.9164 -96.0378 222° Southwest 408 470 40,000  Level Houston Center
04:57PM 29.8172 -96.1422 222° Southwest 404 465 40,000  Level Houston Center
04:58PM 29.7850 -96.2544 252° West 391 450 40,000 -900 Level Houston Center
05:00PM 29.7939 -96.3750 275° West 383 441 38,200 -2,100 Descending Houston Center
05:01PM 29.8014 -96.4936 274° West 374 430 35,700 -2,220 Descending Houston Center
05:02PM 29.8114 -96.6172 275° West 387 445 33,600 -2,280 Descending Houston Center
05:03PM 29.8219 -96.7664 275° West 393 452 31,100 -2,220 Descending Houston Center
05:04PM 29.8314 -96.8886 275° West 387 445 29,100 -1,980 Descending Houston Center
05:05PM 29.8392 -97.0089 274° West 382 440 27,100 -1,380 Descending Houston Center
05:06PM 29.8486 -97.1339 275° West 395 455 26,300 -1,020 Descending Houston Center
05:07PM 29.8592 -97.2711 275° West 426 490 25,000 -2,220 Descending Houston Center
05:08PM 29.8686 -97.4306 274° West 420 483 21,800 -2,760 Descending Houston Center
05:09PM 29.8778 -97.5661 274° West 404 465 19,300 -2,340 Descending Houston Center
05:10PM 29.8836 -97.6611 274° West 387 445 17,600 -2,640 Descending Houston Center
05:11PM 29.8939 -97.8117 275° West 379 436 14,000 -2,220 Descending Houston Center
05:12PM 29.8728 -97.9203 257° West 346 398 12,800 -960 Descending Houston Center
05:13PM 29.8350 -98.0069 243° Southwest 287 330 12,100 -1,080 Descending Houston Center
05:14PM 29.7964 -98.1006 245° Southwest 276 318 10,600 -1,680 Descending Houston Center
05:15PM 29.7667 -98.1744 245° Southwest 272 313 8,800 -1,800 Descending Houston Center
05:16PM 29.7306 -98.2583 244° Southwest 291 335 7,200 -1,380 Descending Houston Center
05:17PM 29.6800 -98.3247 229° Southwest 285 328 6,000 -1,080 Descending Houston Center
05:18PM 29.6067 -98.3264 181° South 257 296 5,100 -900 Descending Houston Center
05:19PM 29.5358 -98.3328 184° South 248 285 4,200 -840 Descending Houston Center
05:20PM 29.4731 -98.3572 199° South 230 265 3,500 -840 Descending Houston Center
05:21PM 29.4747 -98.4000 273° West 118 136 2,600 -1,080 Descending Houston Center
05:21PM 29.4822 -98.4081 317° Northwest 133 153 2,200 -900 Descending Houston Center
05:22PM 29.4983 -98.4283 312° West 119 137 1,700 -720 Descending Houston Center
05:22PM 29.5067 -98.4386 313° West 127 146 1,500 -720 Descending Houston Center
05:23PM 29.5317 -98.4692 313° West 130 150 800 -720 Descending Houston Center